Akademgorodok, Russia

1:06 AM +08 on September 26, 2017 (GMT +0800)
ulitsa Oktyabrskoy Revolyutsii | | Change Station

Elev 1417 ft 52.29 °N, 104.30 °E | Updated 17 minutes ago

Clear
Clear
37.8 °F
Feels Like 38 °F
N
1.9
Wind Variable Wind from NW
Gusts 5.6 mph

Today
High -- | Low -- °F
--% Chance of Precip.
Yesterday
High -- | Low -- °F
Precip. -- in
Pressure 30.18 in
Visibility 6.2 miles
Clouds Few 5000 ft
Windchill 38 °F
Dew Point 31 °F
Humidity 77%
Rainfall 0.00 in
Snow Depth Not available.
6:55 AM 6:52 PM
Waxing Crescent, 28% visible
METAR UIII 251630Z 31005MPS 9999 FEW050CB 01/M01 Q1022 R30/190055 NOSIG RMK QFE722/0962
Pressure 30.18 in
Visibility 6.2 miles
Clouds Few 5000 ft
Windchill 38 °F
Dew Point 31 °F
Humidity 77%
Rainfall 0.00 in
Snow Depth Not available.
6:55 AM 6:52 PM
Waxing Crescent, 28% visible
METAR UIII 251630Z 31005MPS 9999 FEW050CB 01/M01 Q1022 R30/190055 NOSIG RMK QFE722/0962

Get Severe Weather Alerts

Thanks for signing up!

Be on the lookout for a verification email in your inbox.

You'll start receiving the daily forecast at 6 AM.

×

10-Day Weather Forecast

×

Almanac

Astronomy

Sep. 26, 2017 Rise Set
Actual Time
Civil Twilight
Nautical Twilight
Astronomical Twilight
Moon
Length of Visible Light
Length of Day
Tomorrow will be .
, % of the Moon is Illuminated

Today's Extremes

Country Highs Country Lows

Community

WunderPhotos

Category 6

Welcome to Category 6. This is the collective home for Weather Underground's featured writeups by Dr. Jeff Masters (right), Bob Henson (left), Chris Burt, and other regular contributors.

Nearby

Air Quality

  Air Quality AQ Index Pollutant
Not available.

Snow Depth

Station Depth Elevation

Earthquake Activity

City Distance Mag. Time & Date
Minimum magnitude displayed is 2.5.

Coastal Water Temperatures

Place Temperature

Stations

Nearby Weather Stations

Station Location Temp. Windchill Dew Point Humidity Wind Precip. Elev Updated Type